Arlington Heights, Massachusetts
Current Conditions -  °F | °C
As of 1:56 PM on Thursday 23 Oct 2014 (Local Time) from KBED Reporting Station
Light Rain Light Rain  
Wind Chill: 52°   Ceiling: 900
Heat Index: 52°   Visibility: 4mi
Dew Point: 52°   Wind: 13mph
Humidity: 100%   Direction: 20°NNE
Pressure: 29.61"   Gusts: 26mph
Location:  42.42°N, 71.17°W
Report Text: KBED 231756Z 02011G23KT 4SM -RA BR OVC009 11/11 A2961 RMK AO2 PK WND 36027/1738 CIG 007V014 SLP039 P0007 60042 T01110111 10122 20089 58010
Loading
Personal Weather Stations






























Interactive Weather Map New forecast layout! Learn more

10-Day Weather Forecast

Advertisements
Track Severe Weather on mobile